Impacts TAF Board INFO
FOR SITUATIONAL AWARENESS. NOT TO BE USED FOR FLIGHT PLANNING PURPOSES.
IDs:

KDFW - Dallas-Ft Worth Intl, TX, US

Issued at 0901 UTC 17 Dec 2017
Updated at 1000 UTC 17 Dec 2017
Potential Impact None Slight Moderate High
Time0953Z 17/10Z 17/11Z 17/12Z 17/13Z 17/14Z 17/15Z 17/16Z 17/17Z 17/18Z 17/19Z 17/20Z 17/21Z 17/22Z>>
Type OBS PRVL PRVL PRVL PRVL PRVL PRVL PRVL PRVL PRVL PRVL PRVL PRVL PRVL
VIS 7 4 4 4 4 4 >6 >6 >6 >6 >6 >6 >6 >6
CIG 6 6 6 6 6 6 15 40 40 250 250 250 250 250
Cover OVC OVC OVC OVC OVC OVC BKN OVC OVC BKN BKN BKN BKN BKN
FltCat IFR IFR IFR IFR IFR IFR MVFR VFR VFR VFR VFR VFR VFR VFR
WX -- BR BR BR BR BR -- -- -- -- -- -- -- --
WDir 180 160 160 160 160 160 170 170 170 170 170 170 170 170
WSpd 6 6 6 6 6 6 6 8 8 10 10 10 10 10
WGst -- -- -- -- -- -- -- -- -- -- -- -- -- --

Raw TAF
KDFW 170901Z 1709/1812 16006KT 4SM BR OVC006
  FM171500 17006KT P6SM BKN015
  FM171600 17008KT P6SM BKN040 OVC250
  FM171800 17010KT P6SM SCT040 BKN250


Raw METAR
KDFW 170953Z 18006KT 7SM OVC006 08/06 A3002 RMK AO2 SLP163 T00780061 $
KDFW 170853Z 18007KT 7SM OVC006 08/07 A3003 RMK AO2 SLP166 T00780067 55002 $
KDFW 170753Z 15007KT 7SM BKN006 OVC044 08/07 A3000 RMK AO2 SLP157 T00780067 $
KDFW 170705Z 14007KT 7SM BKN006 OVC036 08/06 A3001 RMK AO2 T00780061 $
KDFW 170653Z 15005KT 7SM SCT006 OVC036 07/06 A3001 RMK AO2 SLP160 T00720061 $

METAR Board
Radar Display
Forecast Discussion

FOR SITUATIONAL AWARENESS. NOT TO BE USED FOR FLIGHT PLANNING PURPOSES.